Racecast

Jack Harrison

Temperance Bedford (MI) · 12 · SECMI D1MONROE · Compare head to head

Athlete rating 103.4 2021 TF season
Best race 126.8 XC
Races 67
Seasons 7 2015 — 2021

RankedNation #68263·MI #3193·MI D1 #1857·SEC #193·Team #38 ?

Rating scale ?

Cross Country

2020 XC 116.8

Temperance Bedford (MI) · Grade 12

Date Meet Event Result Place Rating Difficulty PR/SR Flags
2020-10-17 Indian Creek OFFICIAL 5000m 19:08.2 41st · 6th on team 116.1 +0.039
2020-10-10 Howell High School 5000m 18:43 57th · 7th on team 123.5 +0.065 ★CR CSR RSR
2020-10-03 Indian Creek OFFICIAL 5000m 18:29.1 13th · 7th on team 120.0 +0.039 ★PR ★CR SR CSR
2020-09-26 Indian Creek OFFICIAL 5000m 18:43.4 24th · 6th on team 121.1 +0.039 PR CR SR CSR RSR
2020-09-19 Indian Creek OFFICIAL 5000m 18:56 8th · 6th on team 117.0 +0.039 PR CR SR CSR RSR
2020-08-29 Indian Creek OFFICIAL 5000m 20:26 16th · 11th on team 109.5 +0.039
2020-08-22 Indian Creek OFFICIAL 5000m 20:26 19th · 10th on team 110.5 +0.039 CR SR CSR RSR

2019 XC 108.1

Temperance Bedford (MI) · Grade 11

Date Meet Event Result Place Rating Difficulty PR/SR Flags
2019-10-26 Lake Erie Metro Park OFFICIAL 5000m 20:46.3 113th · 11th on team 108.0 +0.055 CSR
2019-10-17 Hudson Mills Metropark - OFFICIAL 5000m 19:22.4 93rd · 6th on team 113.9 +0.036 PR ★CR SR CSR RSR
2019-10-12 Munson Park 5000m 19:59.8 31st · 8th on team 112.3 +0.054 ★CR CSR
2019-10-05 Portage West MS 5000m 19:26.5 237th · 6th on team 113.1 +0.038 PR ★CR SR CSR RSR
2019-09-28 Lake Erie Metro Park OFFICIAL 5000m 20:53.4 82nd · 5th on team 106.8 +0.055 CSR
2019-09-24 Indian Creek OFFICIAL 5000m 20:43.3 87th · 5th on team 107.6 +0.039 CR CSR RSR
2019-09-10 Hudson Mills Metropark - OFFICIAL 5000m 21:17.7 92nd · 5th on team 103.0 +0.036 CSR RSR
2019-09-07 Hedges Boyer Park 5000m 20:34.7 206th · 6th on team 99.8 -0.036 ★CR SR CSR RSR

2018 XC 106.2

Temperance Bedford (MI) · Grade 10

Date Meet Event Result Place Rating Difficulty PR/SR Flags
2018-10-27 Lake Erie Metro Park OFFICIAL 5000m 20:53.3 117th · 16th on team 107.5 +0.055
2018-10-18 Hudson Mills Metropark - OFFICIAL 5000m 22:02.2 223rd · 20th on team 99.8 +0.036 CSR
2018-10-13 Munson Park 5000m 20:23.8 35th · 9th on team 109.4 +0.054 CR CSR
2018-10-09 Indian Creek OFFICIAL 5000m 21:42 27th · 18th on team 103.7 +0.039 CSR
2018-10-06 Portage West MS 5000m 21:57.3 483rd · 18th on team 100.9 +0.038 CSR
2018-09-29 Lake Erie Metro Park OFFICIAL 5000m 20:04 87th · 14th on team 111.9 +0.055 PR ★CR SR CSR RSR
2018-09-25 Cass Benton Park OFFICIAL 5000m 21:31.5 90th · 11th on team 107.7 +0.091 ★CR CSR
2018-09-21 Ella Sharp Park OFFICIAL 5000m 20:31.4 141st · 13th on team 108.8 +0.038 PR ★CR SR CSR RSR
2018-09-06 Willow Metropark OFFICIAL 5000m 20:35.3 112th · 8th on team 107.6 +0.048 PR ★CR SR CSR RSR
2018-08-31 Oakland University 4000m 16:48.8 83rd · 10th on team 105.1 +0.054 ★PR ★CR SR CSR RSR

2017 XC 100.2

Temperance Bedford (MI) · Grade 9

Date Meet Event Result Place Rating Difficulty PR/SR Flags
2017-10-28 Lake Erie Metro Park OFFICIAL 5000m 21:03.6 107th · 16th on team 105.9 +0.055 CR CSR RSR
2017-10-19 Hudson Mills Metropark - OFFICIAL 5000m 20:54.6 188th · 18th on team 105.6 +0.036 PR CR SR CSR RSR
2017-10-10 Indian Creek OFFICIAL 5000m 20:55.3 22nd · 18th on team 105.5 +0.039 PR CR SR CSR RSR
2017-10-07 Portage West MS 5000m 21:43.9 500th · 15th on team 102.4 +0.038 CR CSR RSR
2017-09-30 Lake Erie Metro Park OFFICIAL 5000m 21:42.1 158th · 19th on team 102.2 +0.055 CR CSR RSR
2017-09-22 Ella Sharp Park OFFICIAL 5000m 22:23.2 53rd · 17th on team 100.4 +0.038 CR CSR
2017-09-12 Hudson Mills Metropark - OFFICIAL 5000m 21:32.6 166th · 14th on team 102.0 +0.036 PR CR SR CSR RSR
2017-09-09 Hedges Boyer Park 5000m 22:10.8 375th · 11th on team 92.2 -0.036 PR CR SR CSR
2017-09-01 Oakland University 4000m 17:43 131st · 14th on team 97.3 +0.054 PR CR SR CSR RSR
2017-08-26 Walsh Park 5000m 23:37.3 118th · 26th on team 88.2 -0.009 PR ★CR SR CSR RSR

2016 XC 116.6

Temperance Bedford (MI) · Grade 8

Date Meet Event Result Place Rating Difficulty PR/SR Flags
2016-10-15 Munson Park 3200m 13:22 32nd · 15th on team 126.8 +0.034 ★PR ★CR ★R SR CSR RSR
2016-10-12 Heritage Park (Adrian) OFFICIAL 3218m 13:42.4 56th · 14th on team 125.0 +0.046 ★CR R CSR RSR
2016-10-08 Monroe County Comm College 3218m 13:28.6 27th · 13th on team 122.4 +0.007 ★PR ★CR R SR CSR RSR
2016-10-01 Pearson's Metro Park 3000m 13:45.8 65th · 13th on team 110.8 ★CR CSR
2016-09-14 Rolling Hills 3000m 13:30.2 67th · 18th on team 120.7 +0.071 ★PR ★CR R SR CSR RSR
2016-09-10 Hedges Boyer Park 3200m 14:04.7 14th · 6th on team 106.5 -0.089 PR ★CR SR CSR RSR
2016-09-01 Eastwood HS 3200m 14:47.9 126th · 18th on team 104.3 -0.060 ★CR SR CSR RSR

2015 XC 110.5

Temperance Bedford (MI) · Grade 7

Date Meet Event Result Place Rating Difficulty PR/SR Flags
2015-10-17 Munson Park 3200m 14:51.9 53rd · 20th on team 113.0 +0.034
2015-10-14 Munson Park 3200m 14:30.7 83rd · 17th on team 114.9 +0.034 PR CR SR CSR
2015-09-30 Hudson Mills Metropark - OFFICIAL 3200m 14:34.2 79th · 20th on team 119.2 +0.062 PR ★CR SR CSR
2015-09-26 Sterling State Park 3218m 15:31.3 82nd · 19th on team 112.1 +0.057 PR ★CR SR CSR
2015-09-16 Mill Pond Park 3621m 17:06.5 85th · 17th on team 119.2 +0.099 ★PR ★CR R SR CSR RSR
2015-09-12 Hedges Boyer Park 3200m 14:51.1 37th · 17th on team 99.3 -0.089 PR CR R SR CSR RSR
2015-08-27 Eastwood HS 3200m 15:43 139th · 17th on team 96.0 -0.060 PR CR R SR CSR RSR

Track & Field

2021 TF 101.2

Temperance Bedford (MI) · Grade 12

Date Meet Event Result Place Rating Difficulty PR/SR Flags
2021-05-19 Lincoln JV Invite 1600m 5:29.83 54th · 2nd on team 103.6 -0.032 ★PR SR RSR
2021-05-11 SEC-HS: Bedford & Ypsi vs Skyline (@Lincoln) 1600m 5:32.95 7th · 2nd on team 102.7 -0.032 PR SR RSR
2021-04-22 SEC-HS: AA Huron, Saline at Bedford 3200m 12:41.31 5th · 1st on team 97.2 -0.034 ★PR SR RSR

2019 TF 98.6

Temperance Bedford (MI) · Grade 10

Date Meet Event Result Place Rating Difficulty PR/SR Flags
2019-05-15 Eagle Invite 800m 2:33.75 43rd · 4th on team 99.1 -0.033 ★PR SR
2019-05-15 Eagle Invite 1600m 5:47.84 94th · 9th on team 98.5 -0.033
2019-04-30 SEC-R: Monroe & Bedford @ Skyline 1600m 5:42.21 35th · 9th on team 100.0 -0.033 PR SR RSR
2019-04-23 SEC Red Division - Bedford vs Saline 1600m 5:56.14 27th · 13th on team 96.9 -0.033 SR RSR

2018 TF 94.0

Temperance Bedford (MI) · Grade 9

Date Meet Event Result Place Rating Difficulty PR/SR Flags
2018-05-24 Freshman Beck Invitational 1600m 5:53.6 11th · 4th on team 98.0 -0.022 PR SR RSR
2018-05-24 Freshman Beck Invitational 3200m 13:08.9 5th · 2nd on team 95.3 -0.022 PR SR
2018-05-17 Eagle Boys Invite 800m 2:41.29 53rd · 7th on team 94.3 -0.033
2018-05-17 Eagle Boys Invite 1600m 5:56.61 94th · 8th on team 96.1 -0.033
2018-05-07 SEC Red: Huron @ Bedford 800m 2:41 9th · 9th on team 94.5 -0.033 PR SR RSR
2018-05-07 SEC Red: Huron @ Bedford 1600m 5:56 12th · 12th on team 96.2 -0.033 PR SR RSR
2018-05-01 SEC Red: Bedford & Skyline @ Monroe 800m 2:44.06 16th · 4th on team 92.8 -0.032 PR SR RSR
2018-05-01 SEC Red: Bedford & Skyline @ Monroe 1600m 6:13.61 31st · 8th on team 91.8 -0.032
2018-04-24 Saline/Bedford Dual 1600m 6:06.82 32nd · 10th on team 92.3 -0.042 PR SR RSR
2018-04-23 St. Francis Knight Classic Freshman Invtite 3200m 13:23.5 1st · 1st on team 91.3 -0.043 PR SR
2018-04-10 SEC Red Division - Pioneer @ Bedford 3200m 13:25 8th · 8th on team 91.6 -0.033 PR SR RSR